createdAt,value
2022-08-01T00:00:33.536Z,82.22
2022-08-01T00:01:33.533Z,83.03
2022-08-01T00:02:33.577Z,82.52
2022-08-01T00:03:33.514Z,83.03
2022-08-01T00:04:33.494Z,82.42
2022-08-01T00:05:33.529Z,83.03
2022-08-01T00:06:33.469Z,83.03
2022-08-01T00:07:33.477Z,83.26
2022-08-01T00:08:33.456Z,83.37
2022-08-01T00:09:33.453Z,82.86
2022-08-01T00:10:33.474Z,82.66
2022-08-01T00:11:33.414Z,83.37
2022-08-01T00:12:33.409Z,83.47
2022-08-01T00:13:33.390Z,82.76
2022-08-01T00:14:33.395Z,83.57
2022-08-01T00:15:33.403Z,83.37
2022-08-01T00:16:33.364Z,83.00
2022-08-01T00:17:33.345Z,83.40
2022-08-01T00:18:33.351Z,84.21
2022-08-01T00:19:33.329Z,84.51
2022-08-01T00:20:33.361Z,84.01
2022-08-01T00:21:33.342Z,84.11
2022-08-01T00:22:33.299Z,84.31
2022-08-01T00:23:33.315Z,84.41
2022-08-01T00:24:33.288Z,84.51
2022-08-01T00:25:33.948Z,84.31
2022-08-01T00:26:33.273Z,84.41
2022-08-01T00:27:33.231Z,84.51
2022-08-01T00:28:33.252Z,84.81
2022-08-01T00:30:10.310Z,84.11
2022-08-01T00:30:34.228Z,84.81
2022-08-01T00:31:33.207Z,84.55
2022-08-01T00:32:33.203Z,84.45
2022-08-01T00:33:33.165Z,84.45
2022-08-01T00:34:33.154Z,84.95
2022-08-01T00:35:33.164Z,85.16
2022-08-01T00:36:33.172Z,84.45
2022-08-01T00:37:33.139Z,85.05
2022-08-01T00:38:33.110Z,85.16
2022-08-01T00:39:33.098Z,85.56
2022-08-01T00:40:33.088Z,85.50
2022-08-01T00:41:33.105Z,85.90
2022-08-01T00:42:33.113Z,85.80
2022-08-01T00:43:33.079Z,85.80
2022-08-01T00:44:33.044Z,85.40
2022-08-01T00:45:33.031Z,85.80
2022-08-01T00:46:33.031Z,85.70
2022-08-01T00:47:33.021Z,86.00
2022-08-01T00:48:33.051Z,85.60
2022-08-01T00:49:33.080Z,86.30
2022-08-01T00:50:32.976Z,86.81
2022-08-01T00:51:32.964Z,86.61
2022-08-01T00:52:32.972Z,86.55
2022-08-01T00:53:51.340Z,86.71
2022-08-01T00:54:34.435Z,86.71
2022-08-01T00:55:32.924Z,86.55
2022-08-01T00:56:32.909Z,85.54
2022-08-01T00:58:02.689Z,86.71
2022-08-01T00:58:33.910Z,86.55
2022-08-01T00:59:32.921Z,86.35
2022-08-01T01:00:33.822Z,86.75
2022-08-01T01:01:39.561Z,86.65
2022-08-01T01:02:33.857Z,86.75
2022-08-01T01:03:57.635Z,86.65
2022-08-01T01:04:33.846Z,86.55
2022-08-01T01:05:37.276Z,86.65
2022-08-01T01:06:32.825Z,86.75
2022-08-01T01:07:32.783Z,86.89
2022-08-01T01:08:32.776Z,87.40
2022-08-01T01:09:32.789Z,87.09
2022-08-01T01:10:32.764Z,87.49
2022-08-01T01:11:32.770Z,87.80
2022-08-01T01:12:37.365Z,87.29
2022-08-01T01:13:33.729Z,87.09
2022-08-01T01:14:32.710Z,86.99
2022-08-01T01:15:32.725Z,87.90
2022-08-01T01:16:32.702Z,87.60
2022-08-01T01:17:50.066Z,88.14
2022-08-01T01:18:33.664Z,88.04
2022-08-01T01:19:32.650Z,87.94
2022-08-01T01:20:32.665Z,88.24
2022-08-01T01:21:32.633Z,88.34
2022-08-01T01:22:32.635Z,88.54
2022-08-01T01:23:32.604Z,88.24
2022-08-01T01:24:32.601Z,88.04
2022-08-01T01:25:32.619Z,88.45
2022-08-01T01:26:33.387Z,88.24
2022-08-01T01:27:32.580Z,88.34
2022-08-01T01:28:32.574Z,89.05
2022-08-01T01:29:32.574Z,88.28
2022-08-01T01:30:33.525Z,88.54
2022-08-01T01:31:32.955Z,88.34
2022-08-01T01:32:32.503Z,88.79
2022-08-01T01:33:32.500Z,87.78
2022-08-01T01:34:32.480Z,87.98
2022-08-01T01:35:32.467Z,88.39
2022-08-01T01:36:32.457Z,87.78
2022-08-01T01:37:32.475Z,88.24
2022-08-01T01:38:32.560Z,87.98
2022-08-01T01:39:32.452Z,88.65
2022-08-01T01:40:32.412Z,88.59
2022-08-01T01:41:32.400Z,88.79
2022-08-01T01:42:32.391Z,88.59
2022-08-01T01:43:33.467Z,89.70
2022-08-01T01:44:32.424Z,88.99
2022-08-01T01:45:32.391Z,89.79
2022-08-01T01:46:32.346Z,89.59
2022-08-01T01:47:32.336Z,89.70
2022-08-01T01:48:32.333Z,89.50
2022-08-01T01:49:32.352Z,89.39
2022-08-01T01:50:32.351Z,88.99
2022-08-01T01:51:32.287Z,89.29
2022-08-01T01:52:32.278Z,89.34
2022-08-01T01:53:32.266Z,89.09
2022-08-01T01:54:32.274Z,89.54
2022-08-01T01:55:32.290Z,89.54
2022-08-01T01:56:32.272Z,89.94
2022-08-01T01:57:32.260Z,90.04
2022-08-01T01:58:32.241Z,89.34
2022-08-01T01:59:32.208Z,90.14
2022-08-01T02:00:32.186Z,90.04
2022-08-01T02:02:05.265Z,89.74
2022-08-01T02:02:33.224Z,89.84
2022-08-01T02:03:32.221Z,89.84
2022-08-01T02:04:32.142Z,90.04
2022-08-01T02:05:32.146Z,89.74
2022-08-01T02:06:32.158Z,90.14
2022-08-01T02:07:32.124Z,90.24
2022-08-01T02:08:32.143Z,89.54
2022-08-01T02:09:32.087Z,90.14
2022-08-01T02:10:32.081Z,89.34
2022-08-01T02:11:32.093Z,89.64
2022-08-01T02:12:32.097Z,89.43
2022-08-01T02:13:32.062Z,89.74
2022-08-01T02:14:32.028Z,89.74
2022-08-01T02:15:32.050Z,89.64
2022-08-01T02:16:32.023Z,89.74
2022-08-01T02:17:31.997Z,89.74
2022-08-01T02:18:31.996Z,89.64
2022-08-01T02:19:31.974Z,88.43
2022-08-01T02:20:32.007Z,89.64
2022-08-01T02:21:31.952Z,88.73
2022-08-01T02:22:31.995Z,88.63
2022-08-01T02:23:31.960Z,88.73
2022-08-01T02:24:31.935Z,88.53
2022-08-01T02:25:31.907Z,88.43
2022-08-01T02:26:31.896Z,88.63
2022-08-01T02:27:31.954Z,88.32
2022-08-01T02:28:31.877Z,88.12
2022-08-01T02:29:31.876Z,88.43
2022-08-01T02:30:31.883Z,88.02
2022-08-01T02:31:31.841Z,88.32
2022-08-01T02:32:31.826Z,87.32
2022-08-01T02:33:31.826Z,88.12
2022-08-01T02:34:31.814Z,88.32
2022-08-01T02:35:31.807Z,87.72
2022-08-01T02:36:33.565Z,87.82
2022-08-01T02:37:31.774Z,87.52
2022-08-01T02:38:31.759Z,88.23
2022-08-01T02:39:31.769Z,88.43
2022-08-01T02:40:31.750Z,88.02
2022-08-01T02:41:31.770Z,87.32
2022-08-01T02:42:31.762Z,87.12
2022-08-01T02:43:31.707Z,87.41
2022-08-01T02:44:31.732Z,86.97
2022-08-01T02:45:31.713Z,87.18
2022-08-01T02:46:31.688Z,86.77
2022-08-01T02:47:31.693Z,86.77
2022-08-01T02:48:31.649Z,86.57
2022-08-01T02:49:31.657Z,87.18
2022-08-01T02:50:31.676Z,86.77
2022-08-01T02:51:31.622Z,86.77
2022-08-01T02:52:31.623Z,86.67
2022-08-01T02:53:39.139Z,86.87
2022-08-01T02:54:32.588Z,86.57
2022-08-01T02:55:31.611Z,86.77
2022-08-01T02:56:31.581Z,86.57
2022-08-01T02:57:47.814Z,86.10
2022-08-01T02:58:32.536Z,86.07
2022-08-01T02:59:31.535Z,85.76
2022-08-01T03:00:31.516Z,86.36
2022-08-01T03:01:31.583Z,85.86
2022-08-01T03:02:31.493Z,85.96
2022-08-01T03:03:31.501Z,85.96
2022-08-01T03:04:31.471Z,86.00
2022-08-01T03:05:31.466Z,86.16
2022-08-01T03:06:31.479Z,86.07
2022-08-01T03:07:34.516Z,85.96
2022-08-01T03:08:31.433Z,85.56
2022-08-01T03:09:31.428Z,86.16
2022-08-01T03:10:31.405Z,85.66
2022-08-01T03:11:31.399Z,85.36
2022-08-01T03:12:31.383Z,85.36
2022-08-01T03:13:31.403Z,85.25
2022-08-01T03:14:31.371Z,85.25
2022-08-01T03:15:31.366Z,85.36
2022-08-01T03:16:31.338Z,85.36
2022-08-01T03:17:31.388Z,85.36
2022-08-01T03:18:31.325Z,85.16
2022-08-01T03:19:31.307Z,85.56
2022-08-01T03:20:31.345Z,85.86
2022-08-01T03:21:31.280Z,85.86
2022-08-01T03:22:31.268Z,85.56
2022-08-01T03:23:37.746Z,85.76
2022-08-01T03:24:32.271Z,85.05
2022-08-01T03:25:31.241Z,85.76
2022-08-01T03:26:31.274Z,85.56
2022-08-01T03:27:31.214Z,86.16
2022-08-01T03:28:31.205Z,85.90
2022-08-01T03:29:31.229Z,85.96
2022-08-01T03:30:31.209Z,86.91
2022-08-01T03:31:31.182Z,86.91
2022-08-01T03:32:31.189Z,86.91
2022-08-01T03:33:31.148Z,86.71
2022-08-01T03:34:31.162Z,85.70
2022-08-01T03:35:31.171Z,86.21
2022-08-01T03:36:31.158Z,87.01
2022-08-01T03:37:31.123Z,86.81
2022-08-01T03:38:31.089Z,87.52
2022-08-01T03:39:31.082Z,86.71
2022-08-01T03:40:31.065Z,87.15
2022-08-01T03:41:31.085Z,87.01
2022-08-01T03:42:31.056Z,86.91
2022-08-01T03:43:31.068Z,86.81
2022-08-01T03:44:31.021Z,87.41
2022-08-01T03:45:31.063Z,87.36
2022-08-01T03:46:31.005Z,87.62
2022-08-01T03:47:31.025Z,87.52
2022-08-01T03:48:30.993Z,87.56
2022-08-01T03:49:31.039Z,87.01
2022-08-01T03:50:30.953Z,87.12
2022-08-01T03:51:30.943Z,86.95
2022-08-01T03:52:30.945Z,87.12
2022-08-01T03:53:30.962Z,86.85
2022-08-01T03:54:30.927Z,87.01
2022-08-01T03:55:30.901Z,86.85
2022-08-01T03:56:30.890Z,87.05
2022-08-01T03:57:36.583Z,87.12
2022-08-01T03:58:31.904Z,86.85
2022-08-01T03:59:30.864Z,86.81
2022-08-01T04:00:30.863Z,86.51
2022-08-01T04:01:30.985Z,86.81
2022-08-01T04:02:30.828Z,86.10
2022-08-01T04:03:30.879Z,85.60
2022-08-01T04:04:30.795Z,84.95
2022-08-01T04:05:30.803Z,84.99
2022-08-01T04:06:30.772Z,84.85
2022-08-01T04:07:30.763Z,85.66
2022-08-01T04:08:30.822Z,85.66
2022-08-01T04:09:30.753Z,85.66
2022-08-01T04:10:30.737Z,84.45
2022-08-01T04:11:30.731Z,85.42
2022-08-01T04:12:30.708Z,85.72
2022-08-01T04:13:37.103Z,85.42
2022-08-01T04:14:31.686Z,84.51
2022-08-01T04:15:30.692Z,84.41
2022-08-01T04:16:30.983Z,85.22
2022-08-01T04:17:30.672Z,84.71
2022-08-01T04:18:30.679Z,85.11
2022-08-01T04:19:30.654Z,84.51
2022-08-01T04:20:30.627Z,84.51
2022-08-01T04:21:30.643Z,83.76
2022-08-01T04:22:30.605Z,83.26
2022-08-01T04:23:30.581Z,84.37
2022-08-01T04:24:30.569Z,83.66
2022-08-01T04:25:30.559Z,83.56
2022-08-01T04:26:30.584Z,84.77
2022-08-01T04:27:50.712Z,84.67
2022-08-01T04:28:31.570Z,84.17
2022-08-01T04:29:30.515Z,83.76
2022-08-01T04:30:30.503Z,83.06
2022-08-01T04:31:30.501Z,82.96
2022-08-01T04:32:30.488Z,82.65
2022-08-01T04:33:30.485Z,83.56
2022-08-01T04:34:30.494Z,83.12
2022-08-01T04:36:02.523Z,83.06
2022-08-01T04:36:31.461Z,82.51
2022-08-01T04:37:30.436Z,83.12
2022-08-01T04:38:30.426Z,82.82
2022-08-01T04:39:30.449Z,82.21
2022-08-01T04:40:30.392Z,82.82
2022-08-01T04:41:30.382Z,81.61
2022-08-01T04:42:33.593Z,81.81
2022-08-01T04:43:30.385Z,81.51
2022-08-01T04:44:32.693Z,82.88
2022-08-01T04:45:30.355Z,82.62
2022-08-01T04:46:30.323Z,81.07
2022-08-01T04:47:30.313Z,81.61
2022-08-01T04:48:30.348Z,81.37
2022-08-01T04:49:30.329Z,81.27
2022-08-01T04:50:30.299Z,80.57
2022-08-01T04:51:30.295Z,81.37
2022-08-01T04:52:30.298Z,81.98
2022-08-01T04:53:30.276Z,81.27
2022-08-01T04:54:30.246Z,80.36
2022-08-01T04:55:30.234Z,82.18
2022-08-01T04:56:30.243Z,81.47
2022-08-01T04:57:30.205Z,81.27
2022-08-01T04:58:30.236Z,80.97
2022-08-01T04:59:30.215Z,81.47
2022-08-01T05:00:30.191Z,80.36
2022-08-01T05:01:30.257Z,80.36
2022-08-01T05:02:30.172Z,80.97
2022-08-01T05:03:30.138Z,80.57
2022-08-01T05:04:30.176Z,80.97
2022-08-01T05:05:30.122Z,80.57
2022-08-01T05:06:30.103Z,80.73
2022-08-01T05:07:30.107Z,80.77
2022-08-01T05:08:30.077Z,81.37
2022-08-01T05:09:31.326Z,80.63
2022-08-01T05:10:30.063Z,81.43
2022-08-01T05:11:30.054Z,81.53
2022-08-01T05:12:30.039Z,80.57
2022-08-01T05:13:30.033Z,81.93
2022-08-01T05:14:30.044Z,80.52
2022-08-01T05:15:30.059Z,80.97
2022-08-01T05:16:29.993Z,80.52
2022-08-01T05:17:30.003Z,80.83
2022-08-01T05:18:29.979Z,80.63
2022-08-01T05:19:30.019Z,80.52
2022-08-01T05:20:29.945Z,80.43
2022-08-01T05:21:29.933Z,80.22
2022-08-01T05:22:29.927Z,80.52
2022-08-01T05:23:42.131Z,80.83
2022-08-01T05:24:30.966Z,80.02
2022-08-01T05:25:56.456Z,79.62
2022-08-01T05:26:30.877Z,80.02
2022-08-01T05:27:29.866Z,80.02
2022-08-01T05:28:29.862Z,79.92
2022-08-01T05:29:29.851Z,80.02
2022-08-01T05:30:29.898Z,79.82
2022-08-01T05:31:29.819Z,81.13
2022-08-01T05:32:29.805Z,80.32
2022-08-01T05:33:29.803Z,80.02
2022-08-01T05:34:29.829Z,80.02
2022-08-01T05:35:47.949Z,80.12
2022-08-01T05:36:30.767Z,79.52
2022-08-01T05:37:29.751Z,79.52
2022-08-01T05:38:29.738Z,80.73
2022-08-01T05:39:29.805Z,79.62
2022-08-01T05:40:29.721Z,79.72
2022-08-01T05:41:29.715Z,80.58
2022-08-01T05:42:29.730Z,80.39
2022-08-01T05:43:29.685Z,80.69
2022-08-01T05:44:29.672Z,80.69
2022-08-01T05:45:29.700Z,79.72
2022-08-01T05:46:29.661Z,80.12
2022-08-01T05:47:29.663Z,79.92
2022-08-01T05:48:29.680Z,80.58
2022-08-01T05:49:29.708Z,80.43
2022-08-01T05:50:29.614Z,80.02
2022-08-01T05:51:29.638Z,80.22
2022-08-01T05:52:29.599Z,80.32
2022-08-01T05:53:29.578Z,79.72
2022-08-01T05:54:29.563Z,79.62
2022-08-01T05:55:29.609Z,80.83
2022-08-01T05:56:32.304Z,79.68
2022-08-01T05:57:29.570Z,80.22
2022-08-01T05:58:29.532Z,80.02
2022-08-01T05:59:29.545Z,80.12
2022-08-01T06:00:29.496Z,80.83
2022-08-01T06:01:29.486Z,80.12
2022-08-01T06:02:29.621Z,80.63
2022-08-01T06:03:29.486Z,80.93
2022-08-01T06:04:29.492Z,81.59
2022-08-01T06:05:29.441Z,80.29
2022-08-01T06:06:29.428Z,80.49
2022-08-01T06:07:29.449Z,80.49
2022-08-01T06:08:29.420Z,80.39
2022-08-01T06:09:29.437Z,80.08
2022-08-01T06:10:29.384Z,80.19
2022-08-01T06:11:29.372Z,80.69
2022-08-01T06:12:32.481Z,80.49
2022-08-01T06:13:30.360Z,79.28
2022-08-01T06:14:29.377Z,79.74
2022-08-01T06:15:29.340Z,79.44
2022-08-01T06:16:29.357Z,78.44
2022-08-01T06:17:29.302Z,78.44
2022-08-01T06:18:29.301Z,79.41
2022-08-01T06:19:29.301Z,79.71
2022-08-01T06:20:29.323Z,76.89
2022-08-01T06:21:29.281Z,77.59
2022-08-01T06:22:29.245Z,77.80
2022-08-01T06:23:32.382Z,78.77
2022-08-01T06:24:29.246Z,78.46
2022-08-01T06:25:29.217Z,77.66
2022-08-01T06:26:29.265Z,77.66
2022-08-01T06:27:29.188Z,77.16
2022-08-01T06:28:29.178Z,76.12
2022-08-01T06:29:29.168Z,76.82
2022-08-01T06:30:29.170Z,76.89
2022-08-01T06:31:33.396Z,75.98
2022-08-01T06:32:29.172Z,75.98
2022-08-01T06:33:29.121Z,75.18
2022-08-01T06:34:29.111Z,75.27
2022-08-01T06:35:29.102Z,75.45
2022-08-01T06:36:29.119Z,76.15
2022-08-01T06:37:29.091Z,76.58
2022-08-01T06:38:29.110Z,75.45
2022-08-01T06:39:29.054Z,76.04
2022-08-01T06:40:29.048Z,74.64
2022-08-01T06:41:29.044Z,74.24
2022-08-01T06:42:29.023Z,74.40
2022-08-01T06:43:29.044Z,74.01
2022-08-01T06:44:29.030Z,74.57
2022-08-01T06:45:28.995Z,73.86
2022-08-01T06:46:30.228Z,72.86
2022-08-01T06:47:29.012Z,72.83
2022-08-01T06:48:28.962Z,72.09
2022-08-01T06:49:29.077Z,71.69
2022-08-01T06:50:28.939Z,70.36
2022-08-01T06:51:28.921Z,71.16
2022-08-01T06:52:28.912Z,70.86
2022-08-01T06:53:31.589Z,72.56
2022-08-01T06:54:28.904Z,69.93
2022-08-01T06:55:28.896Z,70.12
2022-08-01T06:56:28.872Z,70.43
2022-08-01T06:57:28.854Z,69.53
2022-08-01T06:58:30.995Z,68.89
2022-08-01T06:59:28.877Z,69.59
2022-08-01T07:00:28.915Z,69.99
2022-08-01T07:01:28.840Z,69.66
2022-08-01T07:02:28.860Z,68.56
2022-08-01T07:03:53.853Z,68.86
2022-08-01T07:04:29.796Z,68.96
2022-08-01T07:05:28.782Z,69.66
2022-08-01T07:06:28.813Z,69.32
2022-08-01T07:07:28.743Z,68.23
2022-08-01T07:08:28.734Z,67.33
2022-08-01T07:09:28.786Z,67.53
2022-08-01T07:10:28.750Z,68.82
2022-08-01T07:11:28.718Z,68.79
2022-08-01T07:12:28.706Z,68.82
2022-08-01T07:13:43.970Z,67.30
2022-08-01T07:14:29.695Z,67.30
2022-08-01T07:15:28.669Z,67.10
2022-08-01T07:16:28.690Z,67.40
2022-08-01T07:17:28.654Z,68.19
2022-08-01T07:18:28.647Z,68.59
2022-08-01T07:19:28.623Z,67.46
2022-08-01T07:20:28.601Z,68.19
2022-08-01T07:21:39.985Z,68.36
2022-08-01T07:22:29.592Z,67.76
2022-08-01T07:23:33.086Z,67.26
2022-08-01T07:24:29.606Z,68.26
2022-08-01T07:25:28.602Z,67.86
2022-08-01T07:26:28.626Z,68.56
2022-08-01T07:27:28.539Z,67.76
2022-08-01T07:28:28.561Z,67.76
2022-08-01T07:29:28.519Z,67.26
2022-08-01T07:30:28.492Z,68.23
2022-08-01T07:31:32.261Z,67.13
2022-08-01T07:32:28.503Z,67.73
2022-08-01T07:33:28.500Z,67.23
2022-08-01T07:34:29.447Z,67.53
2022-08-01T07:35:28.502Z,66.53
2022-08-01T07:36:28.437Z,66.83
2022-08-01T07:37:45.519Z,66.60
2022-08-01T07:38:29.470Z,66.50
2022-08-01T07:39:28.397Z,67.20
2022-08-01T07:40:28.415Z,66.90
2022-08-01T07:41:53.017Z,67.20
2022-08-01T07:42:29.363Z,67.10
2022-08-01T07:43:28.357Z,66.20
2022-08-01T07:44:29.271Z,66.80
2022-08-01T07:45:28.351Z,66.50
2022-08-01T07:46:28.425Z,66.57
2022-08-01T07:47:28.304Z,66.47
2022-08-01T07:48:28.294Z,66.60
2022-08-01T07:49:28.357Z,65.67
2022-08-01T07:50:28.308Z,65.17
2022-08-01T07:51:29.295Z,65.87
2022-08-01T07:52:28.296Z,66.17
2022-08-01T07:53:28.258Z,65.47
2022-08-01T07:54:33.283Z,65.70
2022-08-01T07:55:29.249Z,66.47
2022-08-01T07:56:28.210Z,67.66
2022-08-01T07:57:28.207Z,65.67
2022-08-01T07:58:28.239Z,65.97
2022-08-01T07:59:28.176Z,65.97
2022-08-01T08:00:28.214Z,65.08
2022-08-01T08:01:28.244Z,65.67
2022-08-01T08:02:28.180Z,66.17
2022-08-01T08:03:28.177Z,65.57
2022-08-01T08:04:28.164Z,66.07
2022-08-01T08:05:57.950Z,65.54
2022-08-01T08:06:29.094Z,66.24
2022-08-01T08:07:28.093Z,65.24
2022-08-01T08:08:28.077Z,65.14
2022-08-01T08:09:28.086Z,65.64
2022-08-01T08:10:28.049Z,64.64
2022-08-01T08:11:28.036Z,64.54
2022-08-01T08:12:28.738Z,64.64
2022-08-01T08:13:28.041Z,65.05
2022-08-01T08:14:32.717Z,66.24
2022-08-01T08:15:28.026Z,66.14
2022-08-01T08:16:28.018Z,64.31
2022-08-01T08:17:27.969Z,64.75
2022-08-01T08:18:28.006Z,64.54
2022-08-01T08:19:37.854Z,64.54
2022-08-01T08:20:28.940Z,65.44
2022-08-01T08:21:27.973Z,65.34
2022-08-01T08:22:27.916Z,64.31
2022-08-01T08:23:41.338Z,64.12
2022-08-01T08:24:28.906Z,63.89
2022-08-01T08:25:27.886Z,63.49
2022-08-01T08:26:27.930Z,63.89
2022-08-01T08:27:27.900Z,64.58
2022-08-01T08:28:28.313Z,63.98
2022-08-01T08:29:27.865Z,64.65
2022-08-01T08:30:27.870Z,64.18
2022-08-01T08:31:50.771Z,64.15
2022-08-01T08:32:28.846Z,64.75
2022-08-01T08:33:27.792Z,64.15
2022-08-01T08:34:27.788Z,63.95
2022-08-01T08:35:40.329Z,63.06
2022-08-01T08:36:31.098Z,62.63
2022-08-01T08:37:31.426Z,61.83
2022-08-01T08:38:30.105Z,63.03
2022-08-01T08:39:27.726Z,62.23
2022-08-01T08:40:27.719Z,62.73
2022-08-01T08:41:27.719Z,63.13
2022-08-01T08:42:28.722Z,62.93
2022-08-01T08:43:27.701Z,63.13
2022-08-01T08:44:27.700Z,62.93
2022-08-01T08:45:44.550Z,62.63
2022-08-01T08:46:28.653Z,63.43
2022-08-01T08:47:27.666Z,63.10
2022-08-01T08:48:28.142Z,62.90
2022-08-01T08:49:27.732Z,62.21
2022-08-01T08:50:28.603Z,63.10
2022-08-01T08:51:27.592Z,61.11
2022-08-01T08:52:27.591Z,61.41
2022-08-01T08:53:34.480Z,61.11
2022-08-01T08:54:31.042Z,61.11
2022-08-01T08:55:27.590Z,62.13
2022-08-01T08:56:28.216Z,62.53
2022-08-01T08:57:27.526Z,62.10
2022-08-01T08:58:30.516Z,61.88
2022-08-01T08:59:27.555Z,62.37
2022-08-01T09:00:27.513Z,61.18
2022-08-01T09:01:27.507Z,60.69
2022-08-01T09:02:27.551Z,61.18
2022-08-01T09:03:27.538Z,60.69
2022-08-01T09:04:27.471Z,61.55
2022-08-01T09:05:38.886Z,60.58
2022-08-01T09:06:28.427Z,61.68
2022-08-01T09:07:27.463Z,60.71
2022-08-01T09:08:27.408Z,60.91
2022-08-01T09:09:27.426Z,61.51
2022-08-01T09:10:27.412Z,63.10
2022-08-01T09:11:27.399Z,61.61
2022-08-01T09:12:27.394Z,61.74
2022-08-01T09:13:27.351Z,62.63
2022-08-01T09:14:27.355Z,62.63
2022-08-01T09:15:27.328Z,62.53
2022-08-01T09:16:28.342Z,63.00
2022-08-01T09:17:27.354Z,62.60
2022-08-01T09:18:27.311Z,61.78
2022-08-01T09:19:38.951Z,61.28
2022-08-01T09:20:28.296Z,60.46
2022-08-01T09:21:27.266Z,60.56
2022-08-01T09:22:27.290Z,61.45
2022-08-01T09:23:27.284Z,60.23
2022-08-01T09:24:30.769Z,59.74
2022-08-01T09:25:29.627Z,59.74
2022-08-01T09:26:28.230Z,59.14
2022-08-01T09:27:27.209Z,59.61
2022-08-01T09:28:27.200Z,59.21
2022-08-01T09:29:38.195Z,59.34
2022-08-01T09:30:28.192Z,58.94
2022-08-01T09:31:27.208Z,59.63
2022-08-01T09:32:32.786Z,59.31
2022-08-01T09:33:28.157Z,59.91
2022-08-01T09:34:27.130Z,60.10
2022-08-01T09:35:30.102Z,59.80
2022-08-01T09:36:27.101Z,59.78
2022-08-01T09:37:27.086Z,59.97
2022-08-01T09:38:28.167Z,59.55
2022-08-01T09:39:27.092Z,59.35
2022-08-01T09:40:27.069Z,58.06
2022-08-01T09:41:27.063Z,58.16
2022-08-01T09:42:28.672Z,58.19
2022-08-01T09:43:27.250Z,58.48
2022-08-01T09:44:31.376Z,58.59
2022-08-01T09:45:28.024Z,58.59
2022-08-01T09:46:28.513Z,58.69
2022-08-01T09:47:27.002Z,58.59
2022-08-01T09:48:28.691Z,58.88
2022-08-01T09:49:27.017Z,58.78
2022-08-01T09:50:27.959Z,58.78
2022-08-01T09:51:58.812Z,57.29
2022-08-01T09:52:29.289Z,57.10
2022-08-01T09:53:30.079Z,58.59
2022-08-01T09:54:26.945Z,58.59
2022-08-01T09:55:26.890Z,58.19
2022-08-01T09:56:26.907Z,57.89
2022-08-01T09:57:26.877Z,58.78
2022-08-01T09:58:26.882Z,58.81
2022-08-01T09:59:40.887Z,58.61
2022-08-01T10:00:44.371Z,58.81
2022-08-01T10:01:37.305Z,58.42
2022-08-01T10:02:27.826Z,58.32
2022-08-01T10:03:26.957Z,57.03
2022-08-01T10:04:26.830Z,58.72
2022-08-01T10:05:26.821Z,59.01
2022-08-01T10:06:26.826Z,58.81
2022-08-01T10:07:43.157Z,58.81
2022-08-01T10:08:27.757Z,58.02
2022-08-01T10:09:26.749Z,56.93
2022-08-01T10:10:29.222Z,57.75
2022-08-01T10:11:35.906Z,58.84
2022-08-01T10:12:27.803Z,58.15
2022-08-01T10:13:26.701Z,58.57
2022-08-01T10:14:27.747Z,59.17
2022-08-01T10:15:37.754Z,59.36
2022-08-01T10:16:27.656Z,58.84
2022-08-01T10:17:50.366Z,58.54
2022-08-01T10:18:27.640Z,58.74
2022-08-01T10:19:29.047Z,59.34
2022-08-01T10:20:30.293Z,58.72
2022-08-01T10:21:56.601Z,58.22
2022-08-01T10:22:27.622Z,57.32
2022-08-01T10:23:39.790Z,57.92
2022-08-01T10:24:27.574Z,57.13
2022-08-01T10:25:43.012Z,58.12
2022-08-01T10:26:27.545Z,58.09
2022-08-01T10:27:38.366Z,57.59
2022-08-01T10:28:27.529Z,57.29
2022-08-01T10:29:59.269Z,57.99
2022-08-01T10:30:27.516Z,57.27
2022-08-01T10:31:30.480Z,57.27
2022-08-01T10:32:28.983Z,57.97
2022-08-01T10:33:51.935Z,55.66
2022-08-01T10:34:27.456Z,57.46
2022-08-01T10:35:46.655Z,55.98
2022-08-01T10:36:27.450Z,57.07
2022-08-01T10:37:26.882Z,57.07
2022-08-01T10:38:26.432Z,56.97
2022-08-01T10:39:26.404Z,57.50
2022-08-01T10:40:31.233Z,57.20
2022-08-01T10:41:27.592Z,58.09
2022-08-01T10:42:26.388Z,58.02
2022-08-01T10:43:26.372Z,58.22
2022-08-01T10:44:26.377Z,57.29
2022-08-01T10:45:26.339Z,57.89
2022-08-01T10:46:26.382Z,58.78
2022-08-01T10:47:49.723Z,56.48
2022-08-01T10:48:27.316Z,57.00
2022-08-01T10:49:26.372Z,57.27
2022-08-01T10:50:26.445Z,56.68
2022-08-01T10:51:27.059Z,55.09
2022-08-01T10:52:27.274Z,55.98
2022-08-01T10:53:43.040Z,56.38
2022-08-01T10:54:27.280Z,55.58
2022-08-01T10:55:26.249Z,57.20
2022-08-01T10:56:27.133Z,57.99
2022-08-01T10:57:27.615Z,57.89
2022-08-01T10:58:26.210Z,57.20
2022-08-01T10:59:49.875Z,57.69
2022-08-01T11:00:27.212Z,57.10
2022-08-01T11:01:26.562Z,58.09
2022-08-01T11:02:26.216Z,58.02
2022-08-01T11:03:54.429Z,57.32
2022-08-01T11:04:27.128Z,57.23
2022-08-01T11:05:26.130Z,57.32
2022-08-01T11:06:26.115Z,56.04
2022-08-01T11:07:26.151Z,56.34
2022-08-01T11:08:27.110Z,55.74
2022-08-01T11:09:36.037Z,56.53
2022-08-01T11:10:27.069Z,57.20
2022-08-01T11:11:26.081Z,57.00
2022-08-01T11:12:26.057Z,55.41
2022-08-01T11:13:26.060Z,56.08
2022-08-01T11:14:46.678Z,53.50
2022-08-01T11:15:29.736Z,55.06
2022-08-01T11:16:26.005Z,54.27
2022-08-01T11:17:25.986Z,53.45
2022-08-01T11:18:27.387Z,53.25
2022-08-01T11:19:25.989Z,53.45
2022-08-01T11:20:26.001Z,52.83
2022-08-01T11:21:56.757Z,52.71
2022-08-01T11:22:26.944Z,52.12
2022-08-01T11:23:25.924Z,51.40
2022-08-01T11:24:26.072Z,53.38
2022-08-01T11:26:03.432Z,51.67
2022-08-01T11:26:28.784Z,51.57
2022-08-01T11:27:25.877Z,51.18
2022-08-01T11:28:32.372Z,50.59
2022-08-01T11:29:26.890Z,50.48
2022-08-01T11:30:25.861Z,51.57
2022-08-01T11:31:25.834Z,51.15
2022-08-01T11:32:25.867Z,50.95
2022-08-01T11:33:25.849Z,51.25
2022-08-01T11:34:25.825Z,51.25
2022-08-01T11:35:25.811Z,51.05
2022-08-01T11:36:55.823Z,49.79
2022-08-01T11:37:30.424Z,49.99
2022-08-01T11:38:25.784Z,50.68
2022-08-01T11:39:26.077Z,50.81
2022-08-01T11:40:25.735Z,51.30
2022-08-01T11:41:37.918Z,51.79
2022-08-01T11:42:26.859Z,52.22
2022-08-01T11:43:25.744Z,51.23
2022-08-01T11:44:25.694Z,50.73
2022-08-01T11:45:25.698Z,51.35
2022-08-01T11:46:25.716Z,52.46
2022-08-01T11:47:25.717Z,52.96
2022-08-01T11:48:27.833Z,53.65
2022-08-01T11:49:25.767Z,53.75
2022-08-01T11:50:25.631Z,52.66
2022-08-01T11:51:25.883Z,52.56
2022-08-01T11:52:25.649Z,52.04
2022-08-01T11:53:26.760Z,52.86
2022-08-01T11:54:35.355Z,52.86
2022-08-01T11:55:26.580Z,53.35
2022-08-01T11:56:28.891Z,52.56
2022-08-01T11:57:34.672Z,52.36
2022-08-01T11:58:29.229Z,53.08
2022-08-01T11:59:25.547Z,52.39
2022-08-01T12:00:26.547Z,52.09
2022-08-01T12:01:25.565Z,53.45
2022-08-01T12:02:30.382Z,53.25
2022-08-01T12:03:33.243Z,51.65
2022-08-01T12:04:26.476Z,50.85
2022-08-01T12:05:26.312Z,51.25
2022-08-01T12:06:25.451Z,51.82
2022-08-01T12:07:25.442Z,51.59
2022-08-01T12:08:25.479Z,51.79
2022-08-01T12:09:25.420Z,51.18
2022-08-01T12:10:25.425Z,51.37
2022-08-01T12:11:25.424Z,50.38
2022-08-01T12:12:26.388Z,50.56
2022-08-01T12:13:25.408Z,50.76
2022-08-01T12:14:25.380Z,50.16
2022-08-01T12:15:25.368Z,50.07
2022-08-01T12:16:30.406Z,49.96
2022-08-01T12:17:26.333Z,51.35
2022-08-01T12:18:25.368Z,50.95
2022-08-01T12:19:25.384Z,50.68
2022-08-01T12:20:25.312Z,50.48
2022-08-01T12:21:25.295Z,50.61
2022-08-01T12:22:25.290Z,50.93
2022-08-01T12:23:25.273Z,51.54
2022-08-01T12:24:25.308Z,52.34
2022-08-01T12:25:25.253Z,52.26
2022-08-01T12:26:28.384Z,51.37
2022-08-01T12:27:26.255Z,52.76
2022-08-01T12:28:25.237Z,52.96
2022-08-01T12:29:25.203Z,52.86
2022-08-01T12:30:25.517Z,53.63
2022-08-01T12:31:25.183Z,52.73
2022-08-01T12:32:27.803Z,51.94
2022-08-01T12:33:26.159Z,51.54
2022-08-01T12:34:25.181Z,52.73
2022-08-01T12:35:25.145Z,53.13
2022-08-01T12:36:25.129Z,53.23
2022-08-01T12:37:25.128Z,53.00
2022-08-01T12:38:25.140Z,53.40
2022-08-01T12:39:25.112Z,53.40
2022-08-01T12:40:25.102Z,52.78
2022-08-01T12:41:25.120Z,51.52
2022-08-01T12:42:25.062Z,52.31
2022-08-01T12:43:28.363Z,52.14
2022-08-01T12:44:25.042Z,52.83
2022-08-01T12:45:25.061Z,53.45
2022-08-01T12:46:25.208Z,53.23
2022-08-01T12:47:25.007Z,54.05
2022-08-01T12:48:25.031Z,53.42
2022-08-01T12:49:25.135Z,53.72
2022-08-01T12:50:24.981Z,53.03
2022-08-01T12:51:25.017Z,53.40
2022-08-01T12:52:26.818Z,52.71